KMBS/MBS METAR and TAF weather

Enter ICAO airport designator
Station Type Date Time Source
KMBS METAR 2022/06/28 07:53 UTC NOAA

KMBS 280753Z AUTO 22004KT 10SM CLR 10/08 A3021 RMK AO2 SLP231 T01000078


Station Type Date Time Source
KMBS Decoded METAR 2022/06/28 07:53 UTC NOAA

MBS INTERNATIONAL AIRPORT, MI, United States (KMBS) 43-32N 084-05W 202M
Jun 28, 2022 - 03:53 AM EDT / 2022.06.28 0753 UTC
Wind: from the SW (220 degrees) at 5 MPH (4 KT):0
Visibility: 10 mile(s):0
Sky conditions: clear
Temperature: 50.0 F (10.0 C)
Dew Point: 46.0 F (7.8 C)
Relative Humidity: 86%
Pressure (altimeter): 30.21 in. Hg (1023 hPa)
ob: KMBS 280753Z AUTO 22004KT 10SM CLR 10/08 A3021 RMK AO2 SLP231 T01000078
cycle: 8

Station Type Date Time Source
KMBS TAF 2022/06/28 06:06 UTC NOAA

TAF KMBS 280520Z 2806/2906 34005KT P6SM SKC
FM281500 24011KT P6SM SCT250
FM290000 20007KT P6SM SCT060 OVC120

Example: see airport list